Time;durP1;ratioP1;P1;durP2;ratioP2;P2;SDS_P1;SDS_P2;PMS_P1;PMS_P2;Temp;Humidity;BMP_temperature;BMP_pressure;BME280_temperature;BME280_humidity;BME280_pressure;Samples;Min_cycle;Max_cycle;Signal;HPM_P1;HPM_P2
2022/04/19 00:01:48;;;;;;;7.30;3.60;;;;;;;6.44;38.67;100807.66;1705752;84;21106;-76
2022/04/19 00:04:33;;;;;;;6.12;3.15;;;;;;;6.40;38.68;100804.65;1707831;84;20947;-76
2022/04/19 00:07:17;;;;;;;5.72;3.22;;;;;;;6.34;38.71;100797.34;1708218;83;20934;-76
2022/04/19 00:10:02;;;;;;;5.30;3.40;;;;;;;6.27;38.73;100801.17;1707383;83;20950;-76
2022/04/19 00:12:47;;;;;;;4.30;2.70;;;;;;;6.23;38.75;100798.61;1679777;85;20918;-76
2022/04/19 00:15:31;;;;;;;4.83;3.02;;;;;;;6.19;38.81;100795.17;1683257;83;20923;-76
2022/04/19 00:18:16;;;;;;;4.28;3.42;;;;;;;6.15;38.81;100792.58;1707872;83;20911;-76
2022/04/19 00:21:02;;;;;;;5.25;3.33;;;;;;;6.09;38.86;100791.27;1679012;82;21013;-76
2022/04/19 00:23:47;;;;;;;5.30;2.85;;;;;;;6.04;38.99;100789.10;1646978;86;21435;-76
2022/04/19 00:26:32;;;;;;;5.00;3.12;;;;;;;5.99;38.91;100786.51;1660306;84;20908;-76
2022/04/19 00:29:16;;;;;;;8.10;3.52;;;;;;;5.92;38.94;100777.91;1658489;86;21009;-77
2022/04/19 00:32:01;;;;;;;8.20;3.37;;;;;;;5.89;38.99;100786.02;1667992;85;21260;-77
2022/04/19 00:34:46;;;;;;;11.33;3.50;;;;;;;5.86;39.01;100783.41;1666661;85;21050;-77
2022/04/19 00:37:35;;;;;;;5.15;3.27;;;;;;;5.82;39.08;100782.95;1664717;86;21297;-77
2022/04/19 00:40:20;;;;;;;4.50;2.60;;;;;;;5.79;39.13;100778.66;1667166;85;21159;-76
2022/04/19 00:43:06;;;;;;;3.75;2.58;;;;;;;5.76;39.19;100775.22;1666381;85;21038;-77
2022/04/19 00:45:50;;;;;;;3.77;2.33;;;;;;;5.73;39.23;100773.48;1706236;82;21054;-76
2022/04/19 00:48:34;;;;;;;4.50;2.42;;;;;;;5.72;39.29;100773.52;1706667;83;21571;-76
2022/04/19 00:51:19;;;;;;;3.67;2.40;;;;;;;5.67;39.35;100764.50;1706531;83;21085;-76
2022/04/19 00:54:05;;;;;;;3.95;3.00;;;;;;;5.64;39.41;100761.91;1678002;83;21095;-77
2022/04/19 00:56:49;;;;;;;3.85;2.55;;;;;;;5.62;39.45;100761.05;1707579;83;21573;-76
2022/04/19 00:59:34;;;;;;;3.55;2.45;;;;;;;5.59;39.52;100757.18;1692644;82;21096;-77
2022/04/19 01:02:18;;;;;;;3.80;2.35;;;;;;;5.55;39.53;100762.72;1670177;84;21494;-76
2022/04/19 01:05:05;;;;;;;3.87;2.35;;;;;;;5.52;39.60;100756.28;1706305;84;20982;-76
2022/04/19 01:07:49;;;;;;;4.50;2.87;;;;;;;5.48;39.60;100760.09;1708198;82;21014;-75
2022/04/19 01:10:35;;;;;;;4.97;2.58;;;;;;;5.41;39.68;100758.33;1707192;83;21093;-75
2022/04/19 01:13:20;;;;;;;3.52;2.50;;;;;;;5.38;39.76;100763.02;1696720;83;22604;-75
2022/04/19 01:16:05;;;;;;;5.00;3.02;;;;;;;5.33;39.83;100756.98;1707521;82;21287;-76
2022/04/19 01:18:50;;;;;;;3.25;2.42;;;;;;;5.33;39.86;100758.27;1707188;83;21024;-77
2022/04/19 01:21:46;;;;;;;5.85;2.85;;;;;;;5.28;39.90;100751.83;1706929;83;21085;-77
2022/04/19 01:24:30;;;;;;;4.05;2.40;;;;;;;5.26;39.93;100748.81;1707728;83;21423;-76
2022/04/19 01:27:15;;;;;;;6.72;2.77;;;;;;;5.24;40.04;100754.35;1707538;82;21085;-77
2022/04/19 01:30:05;;;;;;;4.75;2.72;;;;;;;5.20;40.10;100747.06;1706827;83;20967;-76
2022/04/19 01:32:49;;;;;;;3.27;2.37;;;;;;;5.19;40.14;100749.22;1707282;83;21530;-77
2022/04/19 01:35:35;;;;;;;3.02;2.27;;;;;;;5.17;40.15;100746.22;1708894;82;21126;-76
2022/04/19 01:38:19;;;;;;;4.62;2.85;;;;;;;5.11;40.15;100743.59;1696041;83;21018;-76
2022/04/19 01:41:04;;;;;;;5.62;2.83;;;;;;;5.09;40.23;100736.32;1707287;83;21077;-76
2022/04/19 01:43:50;;;;;;;4.30;2.72;;;;;;;5.06;40.29;100742.28;1706780;83;21078;-75
2022/04/19 01:46:36;;;;;;;3.75;2.80;;;;;;;5.02;40.32;100730.28;1706848;83;22277;-76
2022/04/19 01:49:20;;;;;;;3.80;2.67;;;;;;;4.98;40.38;100731.10;1678723;85;20998;-76
2022/04/19 01:52:08;;;;;;;6.03;3.15;;;;;;;4.92;40.54;100727.20;1697990;83;21077;-76
2022/04/19 01:54:52;;;;;;;8.73;3.30;;;;;;;4.86;40.56;100731.84;1702967;82;21047;-76
2022/04/19 01:57:36;;;;;;;3.83;2.92;;;;;;;4.82;40.60;100728.82;1697737;83;21058;-77
2022/04/19 02:00:21;;;;;;;4.80;3.05;;;;;;;4.76;40.65;100733.03;1707236;83;20956;-77
2022/04/19 02:03:06;;;;;;;4.90;3.00;;;;;;;4.71;40.70;100740.67;1707144;83;21641;-77
2022/04/19 02:05:50;;;;;;;6.75;3.45;;;;;;;4.72;40.82;100731.28;1695682;82;21451;-77
2022/04/19 02:08:35;;;;;;;4.47;2.98;;;;;;;4.69;40.85;100734.67;1703467;83;21044;-77
2022/04/19 02:11:19;;;;;;;3.92;2.98;;;;;;;4.64;40.91;100730.81;1690942;84;21092;-77
2022/04/19 02:14:04;;;;;;;4.90;3.20;;;;;;;4.59;40.94;100726.07;1696960;83;21081;-76
2022/04/19 02:16:52;;;;;;;7.00;3.05;;;;;;;4.54;41.02;100719.19;1694210;82;20984;-77
2022/04/19 02:19:36;;;;;;;;;;;;;;;4.52;41.03;100714.47;1676298;83;21664;-76
2022/04/19 02:22:22;;;;;;;4.67;3.08;;;;;;;4.51;41.48;100704.65;1707304;83;20326;-77
2022/04/19 02:25:09;;;;;;;;;;;;;;;4.49;41.08;100698.66;1710389;83;21040;-77
2022/04/19 02:27:54;;;;;;;4.55;2.98;;;;;;;4.43;41.43;100692.19;1706709;83;20254;-77
2022/04/19 02:30:38;;;;;;;4.92;2.98;;;;;;;4.38;41.07;100688.72;1707144;83;21093;-76
2022/04/19 02:33:22;;;;;;;3.92;2.95;;;;;;;4.32;41.18;100688.66;1716832;82;21080;-76
2022/04/19 02:36:07;;;;;;;5.40;2.70;;;;;;;4.26;41.20;100690.73;1715114;82;21613;-75
2022/04/19 02:38:51;;;;;;;3.90;2.75;;;;;;;4.20;41.34;100693.22;1707170;83;21106;-75
2022/04/19 02:41:36;;;;;;;4.25;2.98;;;;;;;4.17;41.41;100690.63;1707007;83;21108;-76
2022/04/19 02:44:21;;;;;;;3.80;2.83;;;;;;;4.12;41.48;100687.19;1682307;82;21101;-76
2022/04/19 02:47:07;;;;;;;5.47;3.45;;;;;;;4.08;41.51;100687.99;1698314;82;21019;-76
2022/04/19 02:49:51;;;;;;;7.25;3.65;;;;;;;4.06;41.61;100691.37;1705547;84;21392;-75
2022/04/19 02:52:36;;;;;;;6.33;3.62;;;;;;;4.00;41.64;100689.60;1705392;82;21217;-75
2022/04/19 02:55:20;;;;;;;5.12;3.27;;;;;;;3.98;41.68;100687.45;1717486;82;21050;-75
2022/04/19 02:58:07;;;;;;;6.65;3.15;;;;;;;3.96;41.75;100686.57;1697012;84;21105;-75
2022/04/19 03:00:51;;;;;;;4.47;3.27;;;;;;;3.93;41.83;100686.11;1705823;83;21545;-74
2022/04/19 03:03:36;;;;;;;7.30;3.40;;;;;;;3.92;41.87;100692.07;1705710;84;21035;-75
2022/04/19 03:06:20;;;;;;;8.10;3.80;;;;;;;3.89;41.94;100679.66;1705528;83;21039;-75
2022/04/19 03:09:05;;;;;;;5.97;3.50;;;;;;;3.89;42.01;100684.78;1705609;84;21046;-75
2022/04/19 03:11:49;;;;;;;4.78;3.00;;;;;;;3.90;42.07;100681.37;1705459;84;21102;-76
2022/04/19 03:14:35;;;;;;;5.87;3.70;;;;;;;3.91;42.14;100676.70;1692626;84;21030;-75
2022/04/19 03:17:19;;;;;;;4.65;3.65;;;;;;;3.85;42.21;100672.38;1707471;84;21372;-76
2022/04/19 03:20:08;;;;;;;4.40;3.08;;;;;;;3.82;42.30;100673.61;1708379;83;20939;-75
2022/04/19 03:28:57;;;;;;;5.67;3.33;;;;;;;3.82;42.51;100668.92;1708226;83;21392;-75
2022/04/19 03:31:42;;;;;;;6.17;3.42;;;;;;;3.83;42.56;100661.68;1707794;83;20923;-75
2022/04/19 03:34:26;;;;;;;5.08;3.47;;;;;;;3.84;42.68;100658.28;1703177;83;21396;-74
2022/04/19 03:37:10;;;;;;;5.03;3.20;;;;;;;3.85;42.74;100656.16;1708076;83;21384;-75
2022/04/19 03:39:55;;;;;;;4.87;3.08;;;;;;;3.86;42.84;100654.91;1689498;82;21118;-75
2022/04/19 03:42:44;;;;;;;4.83;3.30;;;;;;;3.86;42.84;100660.02;1692617;84;20899;-75
2022/04/19 03:45:25;;;;;;;;;;;;;;;3.87;42.91;100652.78;1711361;83;21499;-76
2022/04/19 03:48:13;;;;;;;7.83;3.40;;;;;;;3.89;43.48;100653.66;1707475;83;20340;-75
2022/04/19 03:50:57;;;;;;;6.35;3.55;;;;;;;3.88;43.18;100657.06;1707416;83;21562;-75
2022/04/19 03:53:42;;;;;;;4.97;3.35;;;;;;;3.89;43.14;100656.64;1705584;82;21028;-76
2022/04/19 03:56:27;;;;;;;6.53;3.20;;;;;;;3.91;43.20;100678.84;1705726;84;21041;-75
2022/04/19 03:59:11;;;;;;;4.35;3.25;;;;;;;3.89;43.25;100680.94;1705826;83;21530;-75
2022/04/19 04:01:56;;;;;;;6.47;3.85;;;;;;;3.90;43.38;100680.95;1704619;84;21014;-75
2022/04/19 04:04:41;;;;;;;6.40;4.28;;;;;;;3.91;43.43;100683.09;1677167;85;21042;-75
2022/04/19 04:07:30;;;;;;;6.50;3.90;;;;;;;3.93;43.51;100685.25;1683319;84;21097;-74
2022/04/19 04:10:14;;;;;;;3.83;3.17;;;;;;;3.95;43.63;100686.13;1706526;84;20895;-75
2022/04/19 04:13:00;;;;;;;6.55;3.45;;;;;;;3.94;43.65;100680.16;1707823;83;20930;-75
2022/04/19 04:15:44;;;;;;;5.83;3.52;;;;;;;3.98;43.75;100684.89;1696935;83;21095;-74
2022/04/19 04:18:32;;;;;;;5.30;3.50;;;;;;;3.98;43.86;100689.59;1705654;84;20999;-74
2022/04/19 04:21:16;;;;;;;8.25;5.35;;;;;;;3.97;43.85;100687.87;1706065;84;21928;-75
2022/04/19 04:24:01;;;;;;;34.23;14.23;;;;;;;4.04;43.97;100684.96;1710573;82;21555;-76
2022/04/19 04:26:45;;;;;;;31.85;14.23;;;;;;;4.09;44.03;100690.99;1706752;82;21098;-75
2022/04/19 04:29:30;;;;;;;6.05;4.42;;;;;;;4.14;44.04;100688.48;1677875;84;21498;-75
2022/04/19 04:32:15;;;;;;;3.85;3.02;;;;;;;4.20;44.09;100684.27;1705599;84;21312;-75
2022/04/19 04:34:59;;;;;;;6.20;3.37;;;;;;;4.28;44.17;100695.86;1706025;83;21094;-74
2022/04/19 04:37:44;;;;;;;7.53;3.52;;;;;;;4.32;44.15;100695.06;1678320;83;21320;-75
2022/04/19 04:40:28;;;;;;;6.45;3.45;;;;;;;4.36;44.24;100686.98;1687491;84;20959;-75
2022/04/19 04:43:13;;;;;;;6.15;3.65;;;;;;;4.42;44.39;100687.05;1695072;84;21527;-75
2022/04/19 04:52:10;;;;;;;5.87;4.53;;;;;;;4.66;44.60;100679.61;1708502;83;21475;-75
2022/04/19 04:54:54;;;;;;;3.55;3.08;;;;;;;4.74;44.73;100675.80;1706512;83;20935;-76
2022/04/19 04:57:38;;;;;;;3.98;3.22;;;;;;;4.81;44.74;100683.98;1681418;83;21776;-75
2022/04/19 05:00:23;;;;;;;4.97;2.98;;;;;;;4.87;44.82;100675.92;1682260;84;20915;-75
2022/04/19 05:03:07;;;;;;;6.83;3.70;;;;;;;4.92;44.78;100669.55;1691692;83;20926;-75
2022/04/19 05:05:52;;;;;;;4.12;2.70;;;;;;;4.92;44.85;100666.99;1679797;84;20915;-75
2022/04/19 05:08:37;;;;;;;4.40;2.72;;;;;;;4.94;44.95;100668.72;1689696;83;20927;-75
2022/04/19 05:11:22;;;;;;;4.95;3.30;;;;;;;5.08;45.03;100661.56;1686161;83;20903;-76
2022/04/19 05:14:07;;;;;;;3.87;2.42;;;;;;;5.09;45.08;100660.71;1702386;83;21038;-76
2022/04/19 05:16:52;;;;;;;8.25;3.02;;;;;;;5.09;45.14;100657.73;1708238;83;20912;-76
2022/04/19 05:19:36;;;;;;;5.25;2.80;;;;;;;5.12;45.19;100655.61;1708029;83;20958;-76
2022/04/19 05:22:21;;;;;;;6.30;3.72;;;;;;;5.22;45.38;100649.67;1697796;83;20919;-75
2022/04/19 05:25:06;;;;;;;4.37;3.08;;;;;;;5.40;45.47;100651.48;1690729;84;20910;-75
2022/04/19 05:27:50;;;;;;;4.85;3.50;;;;;;;5.82;45.69;100651.66;1685053;84;20978;-77
2022/04/19 05:30:35;;;;;;;3.55;3.12;;;;;;;6.18;45.60;100647.54;1706066;83;20939;-76
2022/04/19 05:33:19;;;;;;;3.92;3.10;;;;;;;6.25;45.56;100638.53;1708276;83;20907;-76
2022/04/19 05:36:04;;;;;;;11.25;3.27;;;;;;;6.33;45.64;100633.41;1708616;82;21507;-78
2022/04/19 05:38:52;;;;;;;6.85;3.35;;;;;;;6.47;45.65;100640.72;1704784;82;21393;-76
2022/04/19 05:41:39;;;;;;;4.50;3.15;;;;;;;6.42;45.62;100640.28;1708490;83;21372;-77
2022/04/19 05:44:21;;;;;;;4.22;2.77;;;;;;;6.36;45.77;100643.70;1694251;83;26403;-75
2022/04/19 05:47:06;;;;;;;7.33;3.02;;;;;;;6.42;45.83;100652.70;1699025;83;21606;-76
2022/04/19 05:49:51;;;;;;;6.28;3.40;;;;;;;6.51;45.99;100643.72;1695578;83;21545;-77
2022/04/19 05:52:36;;;;;;;4.67;2.95;;;;;;;6.63;45.95;100643.73;1693990;83;21034;-76
2022/04/19 05:55:20;;;;;;;5.42;3.10;;;;;;;6.70;46.02;100635.59;1687917;83;20923;-76
2022/04/19 05:58:05;;;;;;;5.28;2.90;;;;;;;6.79;46.16;100633.42;1680399;83;21450;-75
2022/04/19 06:00:50;;;;;;;4.62;3.15;;;;;;;6.91;46.29;100647.13;1695635;82;21636;-75
2022/04/19 06:06:39;;;;;;;4.08;2.83;;;;;;;7.14;46.28;100644.97;1697029;83;21156;-76
2022/04/19 06:09:24;;;;;;;22.30;10.70;;;;;;;7.04;46.20;100645.41;1706137;83;20974;-75
2022/04/19 06:12:09;;;;;;;10.23;5.87;;;;;;;6.97;46.26;100650.13;1703923;82;21078;-76
2022/04/19 06:14:54;;;;;;;5.03;3.17;;;;;;;6.92;46.33;100648.84;1707386;83;20970;-77
2022/04/19 06:17:40;;;;;;;8.20;5.85;;;;;;;6.87;46.36;100647.13;1697760;83;21101;-75
2022/04/19 06:20:25;;;;;;;7.12;4.33;;;;;;;6.93;46.58;100653.55;1691458;81;21565;-76
2022/04/19 06:23:11;;;;;;;9.05;4.87;;;;;;;7.00;46.58;100655.69;1694655;83;21054;-77
2022/04/19 06:25:56;;;;;;;;;;;;;;;7.06;46.74;100655.26;1698638;82;21081;-76
2022/04/19 06:28:40;;;;;;;7.12;3.62;;;;;;;7.06;47.11;100653.97;1706475;83;20211;-76
2022/04/19 06:31:25;;;;;;;4.67;3.65;;;;;;;7.07;46.76;100654.40;1688953;83;21106;-76
2022/04/19 06:34:10;;;;;;;4.42;3.55;;;;;;;7.10;46.83;100657.40;1705500;83;21472;-75
2022/04/19 06:36:54;;;;;;;7.10;3.20;;;;;;;7.10;46.83;100662.11;1708662;83;20911;-75
2022/04/19 06:39:38;;;;;;;5.42;3.65;;;;;;;7.11;46.97;100658.68;1709259;83;20914;-76
2022/04/19 06:42:23;;;;;;;5.75;3.25;;;;;;;7.06;46.89;100665.55;1708939;83;20939;-76
2022/04/19 06:45:08;;;;;;;6.33;2.85;;;;;;;7.14;47.15;100663.82;1708292;83;20958;-76
2022/04/19 06:48:02;;;;;;;3.77;2.65;;;;;;;7.44;47.21;100663.31;1710979;83;21399;-76
2022/04/19 06:50:46;;;;;;;3.98;3.00;;;;;;;7.98;47.45;100672.53;1703238;83;20966;-76
2022/04/19 06:53:30;;;;;;;4.70;3.02;;;;;;;8.47;47.31;100669.70;1703558;83;20907;-76
2022/04/19 06:56:16;;;;;;;3.60;2.70;;;;;;;8.72;47.33;100666.53;1693163;83;21029;-76
2022/04/19 06:59:00;;;;;;;2.87;2.60;;;;;;;8.76;47.26;100669.50;1692889;83;21293;-75
2022/04/19 07:01:45;;;;;;;6.58;3.45;;;;;;;8.73;47.34;100673.39;1704794;82;21504;-76
2022/04/19 07:04:29;;;;;;;4.95;3.50;;;;;;;8.74;47.43;100668.66;1710633;83;21669;-76
2022/04/19 07:07:14;;;;;;;3.77;2.55;;;;;;;8.72;47.51;100669.95;1699114;83;21085;-76
2022/04/19 07:09:58;;;;;;;11.00;2.80;;;;;;;8.84;47.55;100668.55;1700663;83;21684;-76
2022/04/19 07:12:44;;;;;;;3.90;2.65;;;;;;;9.02;47.64;100667.54;1694217;83;325316;-76
2022/04/19 07:15:29;;;;;;;4.67;3.00;;;;;;;9.12;47.72;100670.45;1700037;83;21609;-76
2022/04/19 07:18:15;;;;;;;3.87;2.87;;;;;;;9.09;47.66;100669.62;1712795;83;21516;-76
2022/04/19 07:27:06;;;;;;;6.05;2.67;;;;;;;9.35;48.08;100666.37;1646244;85;21048;-78
2022/04/19 07:29:50;;;;;;;4.97;3.15;;;;;;;9.81;47.95;100671.86;1660739;83;21092;-78
2022/04/19 07:32:35;;;;;;;3.17;2.55;;;;;;;10.97;47.95;100668.00;1654335;85;21114;-78
2022/04/19 07:35:20;;;;;;;4.40;2.62;;;;;;;11.75;47.29;100675.19;1693788;83;21077;-78
2022/04/19 07:38:05;;;;;;;3.30;2.67;;;;;;;11.97;47.32;100671.27;1645707;86;21081;-78
2022/04/19 07:40:50;;;;;;;4.10;2.75;;;;;;;12.09;47.27;100677.94;1655328;86;21061;-78
2022/04/19 07:43:34;;;;;;;4.03;2.83;;;;;;;12.25;47.43;100673.70;1663816;85;21009;-78
2022/04/19 07:46:19;;;;;;;6.55;2.83;;;;;;;12.10;47.21;100684.39;1669187;84;21506;-78
2022/04/19 07:49:04;;;;;;;6.17;2.55;;;;;;;11.72;47.37;100681.72;1667640;84;21109;-78
2022/04/19 07:51:49;;;;;;;4.75;3.45;;;;;;;11.44;47.34;100671.88;1658926;85;21093;-78
2022/04/19 07:54:35;;;;;;;3.15;2.33;;;;;;;11.22;47.35;100674.47;1657846;85;21680;-78
2022/04/19 07:57:21;;;;;;;4.08;2.87;;;;;;;10.92;47.31;100680.58;1659857;85;21093;-78
2022/04/19 08:00:07;;;;;;;4.65;2.98;;;;;;;10.60;47.25;100681.11;1669212;83;135212;-79
2022/04/19 08:02:51;;;;;;;6.08;2.85;;;;;;;10.36;47.27;100678.05;1716307;83;22234;-77
2022/04/19 08:05:36;;;;;;;5.53;2.37;;;;;;;10.27;47.30;100685.05;1698199;83;21041;-76
2022/04/19 08:08:22;;;;;;;3.27;2.08;;;;;;;10.34;47.32;100680.66;1645503;86;21070;-77
2022/04/19 08:11:06;;;;;;;3.22;2.22;;;;;;;10.52;47.26;100686.83;1664411;84;21070;-77
2022/04/19 08:13:51;;;;;;;5.90;2.40;;;;;;;10.67;47.21;100680.58;1662727;84;21125;-77
2022/04/19 08:16:35;;;;;;;3.70;1.77;;;;;;;10.86;46.98;100692.34;1659195;85;21626;-77
2022/04/19 08:19:20;;;;;;;3.55;1.95;;;;;;;11.09;47.07;100678.15;1673185;85;21002;-76
2022/04/19 08:22:05;;;;;;;3.77;2.33;;;;;;;11.34;46.83;100679.88;1673147;85;21340;-77
2022/04/19 08:24:49;;;;;;;4.50;2.27;;;;;;;11.65;46.82;100682.28;1673237;85;21230;-77
2022/04/19 08:27:46;;;;;;;2.22;1.70;;;;;;;12.12;46.72;100688.25;1708598;83;21040;-75
2022/04/19 08:30:31;;;;;;;2.17;1.57;;;;;;;13.18;46.21;100677.09;1632721;86;21112;-75
2022/04/19 08:33:16;;;;;;;2.42;1.40;;;;;;;13.47;45.72;100690.63;1659394;85;21199;-75
2022/04/19 08:36:01;;;;;;;1.75;1.47;;;;;;;13.85;45.46;100690.41;1679224;83;21065;-74
2022/04/19 08:38:47;;;;;;;1.77;1.57;;;;;;;13.49;45.07;100688.39;1692974;83;21338;-74
2022/04/19 08:41:32;;;;;;;3.92;1.40;;;;;;;13.18;45.34;100699.16;1687341;82;21088;-74
2022/04/19 08:44:18;;;;;;;3.50;2.33;;;;;;;12.73;44.84;100713.66;1707163;83;21148;-74
2022/04/19 08:47:08;;;;;;;1.70;1.60;;;;;;;12.04;44.61;100707.84;1705177;83;21042;-74
2022/04/19 08:49:55;;;;;;;2.98;1.47;;;;;;;11.42;44.87;100700.86;1692747;83;20919;-74
2022/04/19 08:52:40;;;;;;;2.35;1.55;;;;;;;11.09;45.04;100710.06;1686535;83;20962;-73
2022/04/19 08:58:30;;;;;;;4.90;1.50;;;;;;;10.88;44.28;100731.98;1685291;83;20962;-73
2022/04/19 09:01:14;;;;;;;7.35;2.33;;;;;;;10.91;44.52;100735.81;1689872;83;20958;-73
2022/04/19 09:03:42;;;;;;;2.60;1.82;;;;;;;11.02;44.18;100733.03;1691421;82;21867;-73
2022/04/19 09:06:08;;;;;;;4.03;2.10;;;;;;;11.18;44.53;100733.64;1701483;83;20946;-73
2022/04/19 09:08:35;;;;;;;2.87;2.47;;;;;;;11.39;44.54;100730.69;1690641;83;20912;-73
2022/04/19 09:11:09;;;;;;;5.70;2.12;;;;;;;11.58;44.25;100729.89;1685435;83;20872;-74
2022/04/19 09:13:36;;;;;;;2.25;2.02;;;;;;;11.58;43.70;100726.86;1694947;82;21037;-73
2022/04/19 09:16:07;;;;;;;2.65;2.00;;;;;;;11.58;43.92;100727.30;1689805;83;21170;-73
2022/04/19 09:18:36;;;;;;;6.85;2.45;;;;;;;11.60;43.92;100739.78;1698854;83;20974;-73
2022/04/19 09:21:05;;;;;;;6.00;2.80;;;;;;;11.53;43.91;100746.80;1690359;83;21026;-73
2022/04/19 09:23:34;;;;;;;6.85;3.00;;;;;;;11.43;43.81;100741.84;1693314;83;21041;-74
2022/04/19 09:26:05;;;;;;;4.47;2.90;;;;;;;11.31;43.39;100764.91;1683323;84;20974;-74
2022/04/19 09:28:34;;;;;;;6.22;2.67;;;;;;;11.14;43.70;100760.01;1687569;83;21716;-74
2022/04/19 09:31:05;;;;;;;4.85;2.90;;;;;;;11.07;43.61;100758.39;1694692;82;21681;-73
2022/04/19 09:33:31;;;;;;;6.87;2.70;;;;;;;11.06;43.79;100762.30;1689163;84;21467;-73
2022/04/19 09:36:03;;;;;;;5.12;2.90;;;;;;;10.99;43.59;100762.83;1680365;83;21017;-73
2022/04/19 09:38:39;;;;;;;3.92;2.90;;;;;;;10.90;43.59;100751.36;1689580;83;21010;-73
2022/04/19 09:41:09;;;;;;;3.55;3.22;;;;;;;10.79;43.56;100763.59;1706680;83;21037;-74
2022/04/19 09:43:37;;;;;;;5.85;3.40;;;;;;;10.89;43.50;100758.70;1681671;83;123618;-73
2022/04/19 09:46:04;;;;;;;6.85;3.27;;;;;;;10.87;43.65;100770.80;1676971;83;21085;-73
2022/04/19 09:48:45;;;;;;;6.47;4.10;;;;;;;10.89;43.62;100775.52;1687310;83;21045;-73
2022/04/19 09:51:13;;;;;;;4.00;3.42;;;;;;;10.86;43.51;100777.71;1685315;83;21576;-73
2022/04/19 09:53:47;;;;;;;5.97;3.08;;;;;;;10.73;43.44;100777.47;1682272;83;21001;-73
2022/04/19 09:56:21;;;;;;;4.20;3.00;;;;;;;10.62;43.54;100778.05;1683328;83;21070;-73
2022/04/19 09:58:50;;;;;;;;;;;;;;;10.51;43.46;100770.88;1694328;83;21526;-73
2022/04/19 10:09:21;;;;;;;6.57;2.97;;;;;;;10.59;43.55;100790.59;1692149;83;21427;-73
2022/04/19 10:11:49;;;;;;;3.98;3.27;;;;;;;10.68;43.55;100786.16;1687376;83;20962;-73
2022/04/19 10:14:18;;;;;;;5.95;3.00;;;;;;;10.69;43.34;100790.02;1696300;82;21460;-73
2022/04/19 10:16:52;;;;;;;7.08;3.10;;;;;;;10.72;43.36;100787.39;1694193;82;21573;-73
2022/04/19 10:19:19;;;;;;;5.10;2.95;;;;;;;10.81;43.43;100792.44;1686943;83;20931;-73
2022/04/19 10:21:48;;;;;;;3.52;2.80;;;;;;;10.84;43.23;100792.41;1680449;83;21676;-73
2022/04/19 10:24:16;;;;;;;3.85;2.80;;;;;;;10.86;43.24;100790.65;1680428;83;21454;-73
2022/04/19 10:26:47;;;;;;;2.62;2.27;;;;;;;10.91;43.37;100800.93;1685244;83;21483;-73
2022/04/19 10:29:28;;;;;;;2.85;2.50;;;;;;;10.96;43.30;100796.52;1691128;83;21665;-73
2022/04/19 10:32:03;;;;;;;3.10;2.80;;;;;;;10.95;43.27;100793.51;1688807;82;21601;-73
2022/04/19 10:34:33;;;;;;;4.70;2.25;;;;;;;10.95;43.27;100797.39;1693072;83;21636;-73
2022/04/19 10:37:23;;;;;;;4.17;2.65;;;;;;;11.00;43.29;100796.89;1695121;82;21476;-73
2022/04/19 10:40:07;;;;;;;2.55;2.27;;;;;;;11.05;42.79;100818.81;1706903;82;21097;-75
2022/04/19 10:42:40;;;;;;;7.35;2.60;;;;;;;11.02;43.17;100799.45;1705281;83;21498;-78
2022/04/19 10:45:20;;;;;;;4.08;2.40;;;;;;;11.05;43.14;100797.67;1695244;82;22175;-77
2022/04/19 10:47:57;;;;;;;2.70;2.50;;;;;;;11.15;43.12;100795.80;1693962;82;21133;-76
2022/04/19 10:50:34;;;;;;;6.45;2.30;;;;;;;11.22;43.04;100805.19;1700831;82;21065;-76
2022/04/19 10:53:06;;;;;;;5.67;2.87;;;;;;;11.13;42.97;100801.00;1699483;83;20978;-74
2022/04/19 10:55:58;;;;;;;3.62;2.20;;;;;;;11.15;42.93;100800.98;1681390;83;21051;-75
2022/04/19 10:58:44;;;;;;;3.08;2.77;;;;;;;11.09;42.75;100795.89;1697250;82;21538;-75
2022/04/19 11:01:31;;;;;;;6.45;2.85;;;;;;;10.99;42.73;100799.05;1700553;83;21083;-74
2022/04/19 11:04:04;;;;;;;3.02;2.47;;;;;;;10.99;42.93;100794.32;1705167;83;21002;-77
2022/04/19 11:06:38;;;;;;;4.20;3.02;;;;;;;10.99;42.77;100799.49;1704261;83;21409;-75
2022/04/19 11:09:26;;;;;;;3.17;2.70;;;;;;;11.01;42.74;100810.23;1707161;83;21559;-75
2022/04/19 11:11:53;;;;;;;;;;;;;;;11.01;42.67;100805.50;1710099;82;21109;-74
2022/04/19 11:14:36;;;;;;;5.03;2.67;;;;;;;10.93;42.53;100810.78;1712167;82;20171;-74
2022/04/19 11:17:22;;;;;;;2.92;2.62;;;;;;;10.80;42.49;100815.30;1700175;83;21035;-75
2022/04/19 11:19:59;;;;;;;3.55;2.65;;;;;;;10.71;42.52;100814.57;1705329;83;21542;-75
2022/04/19 11:22:43;;;;;;;2.60;2.40;;;;;;;10.69;42.57;100821.50;1702232;83;21501;-75
2022/04/19 11:25:10;;;;;;;2.45;2.20;;;;;;;10.71;42.50;100818.45;1707958;82;21054;-75
2022/04/19 11:28:00;;;;;;;7.35;2.92;;;;;;;10.75;42.51;100802.87;1706256;83;21459;-75
2022/04/19 11:30:27;;;;;;;4.83;2.27;;;;;;;10.76;42.40;100814.08;1702585;83;21065;-76
2022/04/19 11:32:56;;;;;;;;;;;;;;;10.79;42.36;100819.20;1705061;83;20950;-75
2022/04/19 11:35:24;;;;;;;3.30;2.37;;;;;;;10.84;42.26;100813.53;1708908;83;20416;-75
2022/04/19 11:37:50;;;;;;;4.20;2.47;;;;;;;10.96;42.41;100806.86;1707565;82;21392;-75
2022/04/19 11:48:50;;;;;;;3.17;1.95;;;;;;;11.18;41.95;100826.38;1707156;83;21026;-75
2022/04/19 11:51:20;;;;;;;3.98;1.92;;;;;;;11.22;42.00;100812.95;1708914;82;20931;-74
2022/04/19 11:53:47;;;;;;;3.20;2.20;;;;;;;11.18;41.78;100821.20;1694145;83;20895;-74
2022/04/19 11:56:13;;;;;;;2.92;1.87;;;;;;;11.16;41.81;100820.36;1708873;83;20940;-74
2022/04/19 11:58:50;;;;;;;4.30;2.57;;;;;;;11.12;41.81;100813.52;1709337;82;20939;-74
2022/04/19 12:01:16;;;;;;;3.67;2.50;;;;;;;11.26;41.89;100815.91;1704935;83;21208;-74
2022/04/19 12:03:42;;;;;;;3.07;2.20;;;;;;;11.43;41.78;100817.79;1699600;83;21113;-74
2022/04/19 12:06:15;;;;;;;4.33;2.00;;;;;;;11.50;41.80;100828.44;1702481;82;21028;-75
2022/04/19 12:08:49;;;;;;;2.25;1.85;;;;;;;11.48;41.57;100833.22;1702748;82;21018;-75
2022/04/19 12:11:30;;;;;;;3.05;1.67;;;;;;;11.46;41.65;100828.50;1703786;82;21369;-75
2022/04/19 12:13:57;;;;;;;3.55;1.90;;;;;;;11.43;41.37;100826.00;1702525;82;20939;-75
2022/04/19 12:16:34;;;;;;;1.70;1.60;;;;;;;11.30;41.17;100829.66;1702848;82;21053;-75
2022/04/19 12:19:07;;;;;;;1.80;1.50;;;;;;;11.20;41.23;100835.41;1698388;82;21061;-75
2022/04/19 12:21:46;;;;;;;4.35;1.50;;;;;;;11.07;41.20;100840.34;1695540;83;21048;-75
2022/04/19 12:24:23;;;;;;;1.55;1.30;;;;;;;11.00;41.16;100827.08;1699397;82;21062;-75
2022/04/19 12:26:53;;;;;;;1.30;1.20;;;;;;;10.92;41.10;100842.70;1699927;83;21050;-75
2022/04/19 12:29:19;;;;;;;4.10;2.00;;;;;;;10.79;40.94;100835.58;1703090;83;21144;-77
2022/04/19 12:31:47;;;;;;;2.80;1.67;;;;;;;10.73;40.91;100839.98;1707394;83;21106;-76
2022/04/19 12:34:15;;;;;;;1.87;1.77;;;;;;;10.75;41.07;100831.77;1707455;82;21082;-76
2022/04/19 12:36:50;;;;;;;1.65;1.55;;;;;;;10.82;40.94;100829.52;1705384;82;32688;-76
2022/04/19 12:39:22;;;;;;;1.40;1.30;;;;;;;10.94;40.93;100826.73;1704513;83;21046;-75
2022/04/19 12:41:49;;;;;;;2.42;1.37;;;;;;;10.99;40.79;100830.11;1704553;83;21034;-75
2022/04/19 12:44:18;;;;;;;1.80;1.70;;;;;;;10.98;40.85;100831.42;1698098;82;21080;-75
2022/04/19 12:46:47;;;;;;;1.50;1.40;;;;;;;11.01;40.71;100832.67;1700301;83;20867;-75
2022/04/19 12:49:24;;;;;;;1.65;1.50;;;;;;;11.00;40.78;100839.58;1699133;83;21053;-75
2022/04/19 12:52:06;;;;;;;1.50;1.40;;;;;;;11.06;40.77;100841.22;1699832;83;21041;-75
2022/04/19 12:54:40;;;;;;;2.05;1.85;;;;;;;11.12;40.79;100823.87;1705398;83;20883;-76
2022/04/19 13:00:01;;;;;;;1.92;1.72;;;;;;;11.23;40.69;100831.05;1698372;82;21046;-76
2022/04/19 13:02:27;;;;;;;2.42;1.75;;;;;;;11.32;40.75;100830.48;1681877;83;21051;-76
2022/04/19 13:04:54;;;;;;;4.22;1.90;;;;;;;11.43;40.73;100819.53;1701869;82;21108;-75
2022/04/19 13:12:52;;;;;;;1.65;1.55;;;;;;;11.69;40.65;100827.69;1693025;82;21062;-77
2022/04/19 13:15:20;;;;;;;4.22;1.60;;;;;;;11.73;40.44;100838.86;1687533;83;21113;-76
2022/04/19 13:17:46;;;;;;;2.00;1.75;;;;;;;11.74;40.61;100836.23;1699448;83;21109;-76
2022/04/19 13:20:13;;;;;;;2.72;1.55;;;;;;;11.86;40.62;100836.50;1697752;83;21090;-76
2022/04/19 13:22:41;;;;;;;1.87;1.67;;;;;;;11.89;40.50;100825.64;1697216;82;21444;-75
2022/04/19 13:25:08;;;;;;;2.87;1.30;;;;;;;11.89;40.41;100821.75;1701057;82;21083;-75